Time;durP1;ratioP1;P1;durP2;ratioP2;P2;SDS_P1;SDS_P2;PMS_P1;PMS_P2;Temp;Humidity;BMP_temperature;BMP_pressure;BME280_temperature;BME280_humidity;BME280_pressure;Samples;Min_cycle;Max_cycle;Signal;HPM_P1;HPM_P2
2022/01/09 00:00:49;;;;;;;1.90;1.00;;;;;;;8.38;56.43;98478.97;5059718;28;20499;-76
2022/01/09 00:03:15;;;;;;;2.00;1.10;;;;;;;8.38;56.32;98479.81;5065650;28;20055;-76
2022/01/09 00:05:42;;;;;;;1.80;1.00;;;;;;;8.39;56.38;98473.41;5056620;28;20061;-77
2022/01/09 00:08:09;;;;;;;2.28;1.10;;;;;;;8.39;55.99;98465.31;5038757;28;20043;-76
2022/01/09 00:10:36;;;;;;;2.10;0.90;;;;;;;8.40;56.42;98480.50;5040777;28;20088;-76
2022/01/09 00:13:03;;;;;;;1.45;0.80;;;;;;;8.41;56.52;98457.00;5048834;28;20610;-76
2022/01/09 00:15:29;;;;;;;1.23;1.00;;;;;;;8.43;56.36;98456.88;5041048;28;20075;-76
2022/01/09 00:17:56;;;;;;;1.50;0.95;;;;;;;8.43;56.49;98456.88;5033573;28;20128;-76
2022/01/09 00:20:23;;;;;;;1.70;0.80;;;;;;;8.42;56.33;98445.22;5053141;28;20057;-76
2022/01/09 00:22:51;;;;;;;1.77;1.10;;;;;;;8.41;56.55;98440.78;5058433;28;20056;-76
2022/01/09 00:25:21;;;;;;;1.27;0.93;;;;;;;8.43;56.39;98446.06;5055242;28;20131;-76
2022/01/09 00:27:49;;;;;;;2.03;0.90;;;;;;;8.41;56.37;98443.50;5061512;28;20044;-76
2022/01/09 00:30:19;;;;;;;1.63;0.93;;;;;;;8.42;56.47;98445.22;5052073;28;20072;-76
2022/01/09 00:32:46;;;;;;;1.23;0.85;;;;;;;8.39;56.41;98446.38;5052973;28;20484;-76
2022/01/09 00:35:13;;;;;;;1.38;0.80;;;;;;;8.40;56.68;98439.94;5057820;28;20504;-76
2022/01/09 00:37:41;;;;;;;1.60;0.93;;;;;;;8.40;56.52;98441.78;5039234;28;20065;-76
2022/01/09 00:40:09;;;;;;;1.42;0.80;;;;;;;8.43;56.29;98446.06;5050603;28;20053;-77
2022/01/09 00:42:36;;;;;;;0.77;0.70;;;;;;;8.40;56.38;98442.63;5055351;28;20141;-77
2022/01/09 00:45:05;;;;;;;1.13;0.70;;;;;;;8.44;56.32;98434.25;5038129;28;20049;-77
2022/01/09 00:47:32;;;;;;;1.58;1.00;;;;;;;8.43;56.54;98427.13;5030826;28;20155;-77
2022/01/09 00:49:59;;;;;;;1.73;0.82;;;;;;;8.41;56.70;98429.97;5037615;28;20055;-78
2022/01/09 00:52:26;;;;;;;2.65;0.90;;;;;;;8.41;56.76;98435.38;5057575;28;20341;-77
2022/01/09 00:54:52;;;;;;;1.75;0.98;;;;;;;8.43;56.64;98437.94;5056245;28;20053;-77
2022/01/09 00:57:19;;;;;;;1.83;0.80;;;;;;;8.44;56.47;98431.53;5061202;28;20041;-78
2022/01/09 00:59:48;;;;;;;1.73;0.90;;;;;;;8.46;56.98;98433.09;5036018;28;20121;-77
2022/01/09 01:02:15;;;;;;;1.40;0.80;;;;;;;8.46;56.95;98429.56;5044094;28;20084;-77
2022/01/09 01:04:42;;;;;;;1.38;1.02;;;;;;;8.46;56.79;98429.56;5056960;28;20049;-77
2022/01/09 01:07:10;;;;;;;1.80;1.10;;;;;;;8.47;56.91;98428.56;5070564;28;20052;-77
2022/01/09 01:09:36;;;;;;;1.52;0.95;;;;;;;8.47;56.92;98426.69;5060323;28;20136;-77
2022/01/09 01:12:03;;;;;;;1.25;0.88;;;;;;;8.50;56.95;98420.13;5052526;28;20526;-77
2022/01/09 01:14:32;;;;;;;1.75;0.95;;;;;;;8.50;56.84;98426.38;5051030;28;20072;-77
2022/01/09 01:16:58;;;;;;;2.30;0.93;;;;;;;8.53;56.94;98425.25;5044786;28;20139;-77
2022/01/09 01:19:25;;;;;;;2.42;1.20;;;;;;;8.55;56.85;98428.66;5045324;28;20049;-77
2022/01/09 01:21:52;;;;;;;2.47;0.90;;;;;;;8.56;56.89;98425.81;5035307;28;20103;-77
2022/01/09 01:24:21;;;;;;;1.80;0.82;;;;;;;8.58;56.98;98418.38;5059866;28;20076;-77
2022/01/09 01:26:48;;;;;;;2.03;1.00;;;;;;;8.59;56.86;98425.50;5038997;28;20076;-77
2022/01/09 01:29:15;;;;;;;2.58;1.20;;;;;;;8.61;56.88;98428.06;5056015;28;20128;-78
2022/01/09 01:31:42;;;;;;;2.15;1.00;;;;;;;8.61;56.91;98431.63;5047706;28;20204;-77
2022/01/09 01:34:11;;;;;;;1.70;0.90;;;;;;;8.64;56.68;98435.88;5046077;28;20091;-77
2022/01/09 01:36:40;;;;;;;2.53;0.93;;;;;;;8.65;56.95;98433.00;5031158;28;20137;-77
2022/01/09 01:39:06;;;;;;;1.75;0.95;;;;;;;8.68;57.34;98440.84;5040040;28;20110;-77
2022/01/09 01:41:33;;;;;;;2.67;0.90;;;;;;;8.70;57.18;98446.09;5069232;28;20106;-77
2022/01/09 01:44:00;;;;;;;1.17;0.68;;;;;;;8.72;56.91;98446.81;5066298;28;20143;-77
2022/01/09 01:46:27;;;;;;;1.80;0.90;;;;;;;8.73;56.82;98452.03;5055069;28;20131;-78
2022/01/09 01:48:53;;;;;;;2.35;0.82;;;;;;;8.75;56.87;98450.03;5070843;28;20467;-77
2022/01/09 01:51:23;;;;;;;1.73;0.70;;;;;;;8.78;56.93;98462.44;5059922;28;20163;-77
2022/01/09 01:53:49;;;;;;;2.13;1.10;;;;;;;8.80;57.10;98456.88;5050282;28;20065;-77
2022/01/09 01:56:19;;;;;;;1.17;0.70;;;;;;;8.82;56.74;98465.66;5034367;28;20094;-77
2022/01/09 01:58:47;;;;;;;1.98;0.70;;;;;;;8.84;56.85;98466.38;5063452;28;20571;-77
2022/01/09 02:01:15;;;;;;;1.42;0.80;;;;;;;8.85;57.16;98465.38;5037021;28;20528;-77
2022/01/09 02:03:41;;;;;;;1.67;0.80;;;;;;;8.87;56.97;98471.50;5062867;28;20132;-77
2022/01/09 02:06:08;;;;;;;1.20;0.80;;;;;;;8.87;56.82;98483.19;5062059;28;20140;-78
2022/01/09 02:08:35;;;;;;;1.67;0.93;;;;;;;8.88;57.11;98509.25;5051290;28;20128;-77
2022/01/09 02:11:01;;;;;;;0.90;0.50;;;;;;;8.90;57.05;98506.34;5048820;28;20072;-77
2022/01/09 02:13:28;;;;;;;1.38;0.90;;;;;;;8.93;56.90;98522.31;5049374;28;20076;-77
2022/01/09 02:15:58;;;;;;;1.30;0.80;;;;;;;8.95;56.83;98514.91;5052225;28;20128;-77
2022/01/09 02:18:25;;;;;;;2.33;1.27;;;;;;;8.97;56.64;98529.16;5049790;28;20443;-77
2022/01/09 02:20:52;;;;;;;1.73;0.98;;;;;;;8.99;56.94;98537.94;5047890;28;20140;-77
2022/01/09 02:23:19;;;;;;;1.60;1.00;;;;;;;9.02;56.88;98545.78;5049689;28;20129;-78
2022/01/09 02:25:47;;;;;;;1.30;1.00;;;;;;;9.05;56.89;98561.72;5052702;28;20147;-78
2022/01/09 02:28:15;;;;;;;1.77;0.80;;;;;;;9.05;56.91;98578.81;5049869;28;20144;-77
2022/01/09 02:30:43;;;;;;;1.50;0.90;;;;;;;9.08;56.88;98570.38;5050989;28;20139;-78
2022/01/09 02:33:16;;;;;;;1.70;1.02;;;;;;;9.09;57.06;98588.34;5035802;28;20048;-78
2022/01/09 02:35:43;;;;;;;;;;;;;;;8.89;57.33;98600.25;5057872;28;20072;-78
2022/01/09 02:38:09;;;;;;;1.27;0.90;;;;;;;9.04;56.88;98604.19;5032673;28;20024;-78
2022/01/09 02:40:36;;;;;;;1.15;0.75;;;;;;;9.08;56.70;98604.72;5032413;28;20083;-78
2022/01/09 02:43:03;;;;;;;1.45;0.70;;;;;;;9.10;56.84;98627.94;5049680;28;20073;-77
2022/01/09 02:45:30;;;;;;;2.47;0.77;;;;;;;9.10;56.87;98641.47;5045967;28;20111;-78
2022/01/09 02:47:59;;;;;;;1.20;0.77;;;;;;;9.10;56.90;98643.31;5031718;28;20120;-78
2022/01/09 02:53:02;;;;;;;2.03;0.80;;;;;;;9.09;56.75;98664.13;5053991;28;20171;-78
2022/01/09 02:55:29;;;;;;;1.30;0.60;;;;;;;9.09;56.61;98666.84;5052101;28;20049;-78
2022/01/09 02:57:58;;;;;;;1.70;0.98;;;;;;;9.10;56.72;98678.53;5029682;28;20145;-77
2022/01/09 03:00:27;;;;;;;1.58;0.60;;;;;;;9.08;56.76;98691.34;5044587;28;20135;-77
2022/01/09 03:02:55;;;;;;;1.52;0.80;;;;;;;9.06;56.73;98687.91;5030684;28;20053;-77
2022/01/09 03:05:23;;;;;;;1.77;0.75;;;;;;;9.06;56.75;98685.22;5062526;28;20080;-77
2022/01/09 03:07:51;;;;;;;2.20;0.70;;;;;;;9.08;56.83;98691.34;5066041;28;20123;-77
2022/01/09 03:10:20;;;;;;;3.38;1.08;;;;;;;9.08;57.12;98691.34;5049144;28;20095;-77
2022/01/09 03:12:48;;;;;;;3.63;1.42;;;;;;;9.07;56.78;98693.19;5024184;28;20159;-77
2022/01/09 03:15:15;;;;;;;5.57;1.35;;;;;;;9.07;56.84;98714.00;5030407;28;20084;-77
2022/01/09 03:17:42;;;;;;;4.72;1.15;;;;;;;9.09;56.98;98720.97;5062905;28;20127;-77
2022/01/09 03:20:12;;;;;;;6.15;1.63;;;;;;;9.09;57.03;98723.69;5064016;28;20053;-78
2022/01/09 03:22:39;;;;;;;4.50;1.15;;;;;;;9.06;57.18;98736.63;5055909;28;20080;-77
2022/01/09 03:25:06;;;;;;;5.85;1.40;;;;;;;9.08;57.13;98749.03;5037154;28;20136;-77
2022/01/09 03:27:33;;;;;;;7.15;1.42;;;;;;;9.10;57.18;98743.47;5035886;28;20103;-77
2022/01/09 03:30:01;;;;;;;4.53;1.65;;;;;;;9.12;57.04;98755.03;5067093;28;20475;-77
2022/01/09 03:32:27;;;;;;;7.80;2.00;;;;;;;9.13;57.27;98754.88;5031454;28;20055;-77
2022/01/09 03:34:54;;;;;;;6.78;1.77;;;;;;;9.15;57.18;98769.13;5034981;28;20052;-77
2022/01/09 03:37:20;;;;;;;7.47;1.77;;;;;;;9.17;56.86;98758.16;5043085;28;20044;-77
2022/01/09 03:39:47;;;;;;;9.70;2.30;;;;;;;9.18;57.25;98777.94;5035223;28;20057;-77
2022/01/09 03:42:13;;;;;;;7.63;1.90;;;;;;;9.19;57.20;98783.22;5062623;28;20530;-77
2022/01/09 03:44:40;;;;;;;5.78;1.85;;;;;;;9.23;57.21;98795.47;5052025;28;20083;-77
2022/01/09 03:47:07;;;;;;;6.72;1.70;;;;;;;9.22;57.43;98801.91;5063408;28;20048;-77
2022/01/09 03:49:34;;;;;;;9.15;1.90;;;;;;;9.24;57.16;98802.59;5050760;28;20058;-77
2022/01/09 03:52:01;;;;;;;7.35;1.75;;;;;;;9.24;57.46;98813.41;5057194;28;20085;-76
2022/01/09 03:54:27;;;;;;;8.48;2.00;;;;;;;9.24;57.50;98816.13;5065173;28;20055;-77
2022/01/09 03:56:54;;;;;;;8.73;1.90;;;;;;;9.26;57.35;98824.13;5057139;28;20076;-77
2022/01/09 03:59:20;;;;;;;6.85;2.10;;;;;;;9.27;57.15;98815.00;5058268;28;20080;-76
2022/01/09 04:01:47;;;;;;;6.30;1.60;;;;;;;9.30;57.01;98829.13;5055025;28;20103;-77
2022/01/09 04:04:14;;;;;;;7.55;1.70;;;;;;;9.28;57.02;98836.53;5030631;28;20103;-77
2022/01/09 04:06:46;;;;;;;5.88;1.70;;;;;;;9.30;57.28;98864.31;5071719;28;20110;-78
2022/01/09 04:09:38;;;;;;;5.15;1.58;;;;;;;9.30;57.12;98875.16;5038886;28;20124;-78
2022/01/09 04:12:15;;;;;;;3.22;1.30;;;;;;;9.33;57.17;98874.84;5060063;28;20081;-78
2022/01/09 04:14:43;;;;;;;4.78;1.30;;;;;;;9.31;56.98;98886.81;5042352;28;20073;-78
2022/01/09 04:17:17;;;;;;;3.85;1.23;;;;;;;9.32;57.22;98896.66;5052092;28;20071;-78
2022/01/09 04:19:44;;;;;;;6.75;1.73;;;;;;;9.32;57.02;98889.38;5034290;28;20590;-78
2022/01/09 04:22:11;;;;;;;6.75;1.60;;;;;;;9.34;57.02;98902.78;5064775;28;20072;-78
2022/01/09 04:24:37;;;;;;;4.50;1.85;;;;;;;9.34;57.04;98908.19;5057160;28;20555;-77
2022/01/09 04:27:05;;;;;;;4.60;1.90;;;;;;;9.35;57.35;98915.31;5044450;28;20049;-78
2022/01/09 04:29:31;;;;;;;9.27;1.70;;;;;;;9.34;57.16;98924.44;5058042;28;20416;-78
2022/01/09 04:31:58;;;;;;;6.35;1.80;;;;;;;9.34;56.91;98927.16;5061090;28;20518;-78
2022/01/09 04:34:25;;;;;;;5.55;2.58;;;;;;;9.34;57.24;98933.44;5046460;28;20527;-78
2022/01/09 04:36:51;;;;;;;8.93;2.15;;;;;;;9.35;57.13;98931.56;5056451;28;20479;-78
2022/01/09 04:39:20;;;;;;;8.80;2.45;;;;;;;9.36;57.46;98934.16;5055559;28;20087;-77
2022/01/09 04:41:47;;;;;;;6.30;2.33;;;;;;;9.37;57.55;98944.00;5041119;28;20112;-78
2022/01/09 04:44:13;;;;;;;7.78;2.63;;;;;;;9.38;57.36;98945.69;5034069;28;20135;-77
2022/01/09 04:46:47;;;;;;;8.25;2.35;;;;;;;9.38;57.56;98964.66;5035895;28;20072;-77
2022/01/09 04:49:13;;;;;;;9.95;2.72;;;;;;;9.40;57.79;98983.44;5042518;28;20123;-77
2022/01/09 04:51:40;;;;;;;7.82;2.75;;;;;;;9.40;57.86;98976.19;5046555;28;20496;-77
2022/01/09 04:54:07;;;;;;;12.18;3.50;;;;;;;9.45;57.46;98986.63;5052326;28;20080;-77
2022/01/09 04:56:33;;;;;;;7.70;2.50;;;;;;;9.44;57.59;98993.03;5053952;28;20135;-76
2022/01/09 04:58:59;;;;;;;9.05;2.70;;;;;;;9.45;57.75;98984.75;5066940;28;20460;-77
2022/01/09 05:01:31;;;;;;;8.43;2.92;;;;;;;9.46;57.76;99008.16;5050926;28;20048;-77
2022/01/09 05:03:57;;;;;;;7.43;2.60;;;;;;;9.49;57.42;99018.69;5058512;28;20087;-77
2022/01/09 05:06:24;;;;;;;9.68;2.95;;;;;;;9.50;57.60;99012.28;5063228;28;20144;-77
2022/01/09 05:08:51;;;;;;;7.65;2.67;;;;;;;9.50;57.54;99031.22;5030856;28;20076;-77
2022/01/09 05:11:17;;;;;;;10.90;2.65;;;;;;;9.51;57.52;99042.94;5060020;28;20081;-77
2022/01/09 05:13:44;;;;;;;9.02;2.65;;;;;;;9.52;57.58;99050.94;5032318;28;20065;-76
2022/01/09 05:16:10;;;;;;;8.25;2.33;;;;;;;9.54;57.37;99053.50;5032807;28;20045;-77
2022/01/09 05:18:50;;;;;;;7.82;2.30;;;;;;;9.55;57.58;99058.75;5068725;28;20163;-77
2022/01/09 05:21:29;;;;;;;9.50;3.17;;;;;;;9.57;57.61;99065.88;5052722;28;20143;-76
2022/01/09 05:23:56;;;;;;;10.05;2.75;;;;;;;9.53;57.29;99084.28;5041876;28;20144;-77
2022/01/09 05:26:22;;;;;;;10.00;2.60;;;;;;;9.54;57.26;99089.56;5038109;28;20056;-76
2022/01/09 05:28:49;;;;;;;5.95;2.33;;;;;;;9.54;57.46;99100.41;5050181;28;20137;-76
2022/01/09 05:31:16;;;;;;;5.70;2.10;;;;;;;9.53;57.25;99104.13;5051927;28;20089;-76
2022/01/09 05:33:42;;;;;;;6.72;2.28;;;;;;;9.53;57.27;99111.38;5047748;28;20080;-76
2022/01/09 05:36:09;;;;;;;6.25;2.10;;;;;;;9.53;57.19;99122.22;5048715;28;20049;-76
2022/01/09 05:38:35;;;;;;;7.53;2.17;;;;;;;9.53;56.98;99123.06;5054732;28;20099;-76
2022/01/09 05:41:02;;;;;;;7.85;2.50;;;;;;;9.53;57.04;99135.75;5044475;28;20857;-76
2022/01/09 05:43:29;;;;;;;7.53;2.50;;;;;;;9.53;57.00;99141.19;5062450;28;20041;-76
2022/01/09 05:45:59;;;;;;;7.47;2.42;;;;;;;9.53;56.98;99133.06;5042818;28;20072;-76
2022/01/09 05:48:25;;;;;;;6.07;2.22;;;;;;;9.51;57.00;99157.56;5039068;28;20545;-76
2022/01/09 05:51:45;;;;;;;6.10;2.25;;;;;;;9.52;56.92;99155.72;5048588;28;20053;-76
2022/01/09 05:54:11;;;;;;;6.35;2.65;;;;;;;9.47;56.88;99153.41;5040113;28;20080;-77
2022/01/09 05:56:38;;;;;;;9.32;2.30;;;;;;;9.49;57.19;99167.69;5018131;28;20123;-76
2022/01/09 05:59:04;;;;;;;7.55;2.47;;;;;;;9.47;56.79;99172.38;5048594;28;20659;-76
2022/01/09 06:01:31;;;;;;;6.88;2.30;;;;;;;9.49;56.93;99178.50;5039130;28;20107;-76
2022/01/09 06:03:58;;;;;;;7.85;2.17;;;;;;;9.49;56.88;99186.63;5051005;28;20496;-76
2022/01/09 06:06:24;;;;;;;8.57;2.42;;;;;;;9.47;56.73;99176.94;5063475;28;20052;-76
2022/01/09 06:08:51;;;;;;;8.48;2.20;;;;;;;9.46;56.81;99192.34;5064683;28;20120;-76
2022/01/09 06:11:17;;;;;;;7.60;2.20;;;;;;;9.47;56.81;99204.88;5040250;28;20081;-76
2022/01/09 06:13:44;;;;;;;8.88;2.00;;;;;;;9.46;57.02;99197.75;5053344;28;20143;-76
2022/01/09 06:16:11;;;;;;;8.63;2.45;;;;;;;9.46;56.87;99211.31;5053990;28;20128;-76
2022/01/09 06:18:38;;;;;;;6.13;1.70;;;;;;;9.46;56.79;99208.59;5033485;28;20110;-76
2022/01/09 06:21:05;;;;;;;6.20;1.95;;;;;;;9.45;56.80;99214.16;5044801;28;20069;-76
2022/01/09 06:23:32;;;;;;;7.80;2.00;;;;;;;9.44;56.79;99216.00;5054515;28;20083;-76
2022/01/09 06:25:58;;;;;;;6.35;2.05;;;;;;;9.44;56.84;99220.56;5048154;28;20056;-77
2022/01/09 06:28:25;;;;;;;7.10;1.80;;;;;;;9.44;56.78;99226.81;5043473;28;20099;-76
2022/01/09 06:30:52;;;;;;;6.25;1.60;;;;;;;9.44;56.58;99232.25;5045261;28;20053;-76
2022/01/09 06:33:18;;;;;;;8.45;1.65;;;;;;;9.44;56.39;99240.38;5059352;28;20052;-76
2022/01/09 06:35:45;;;;;;;6.78;1.60;;;;;;;9.43;56.51;99241.38;5029812;28;20147;-76
2022/01/09 06:38:11;;;;;;;7.00;2.15;;;;;;;9.43;56.28;99248.63;5065778;28;20481;-77
2022/01/09 06:40:38;;;;;;;7.53;2.00;;;;;;;9.41;56.57;99258.72;5045693;28;20073;-76
2022/01/09 06:43:06;;;;;;;5.70;1.73;;;;;;;9.43;56.54;99271.16;5061131;28;20132;-76
2022/01/09 06:45:34;;;;;;;5.28;1.55;;;;;;;9.42;56.47;99268.59;5052252;28;20110;-76
2022/01/09 06:48:02;;;;;;;7.13;1.98;;;;;;;9.42;56.33;99274.00;5036575;28;20071;-76
2022/01/09 06:50:29;;;;;;;6.43;1.80;;;;;;;9.42;56.41;99282.97;5060977;28;20059;-76
2022/01/09 06:52:56;;;;;;;5.38;1.90;;;;;;;9.39;56.21;99283.25;5052343;28;20555;-76
2022/01/09 06:55:22;;;;;;;6.18;1.42;;;;;;;9.41;56.30;99294.81;5033072;28;20139;-76
2022/01/09 06:57:49;;;;;;;4.13;1.60;;;;;;;9.40;56.47;99300.34;5055449;28;20170;-76
2022/01/09 07:00:17;;;;;;;5.47;1.70;;;;;;;9.42;56.14;99296.53;5048749;28;20128;-76
2022/01/09 07:02:44;;;;;;;6.15;2.13;;;;;;;9.38;56.14;99303.22;5063642;28;20803;-76
2022/01/09 07:05:12;;;;;;;11.50;2.58;;;;;;;9.38;56.05;99305.06;5033242;28;20059;-76
2022/01/09 07:07:39;;;;;;;8.82;2.13;;;;;;;9.37;56.17;99330.44;5059279;28;20107;-76
2022/01/09 07:10:07;;;;;;;6.72;1.73;;;;;;;9.36;56.10;99332.28;5063376;28;20045;-76
2022/01/09 07:12:34;;;;;;;7.07;2.00;;;;;;;9.35;55.98;99332.41;5055695;28;20500;-76
2022/01/09 07:15:01;;;;;;;7.10;2.53;;;;;;;9.34;56.27;99336.09;5022290;28;20080;-76
2022/01/09 07:17:27;;;;;;;6.82;1.90;;;;;;;9.33;56.11;99340.66;5037881;28;20081;-76
2022/01/09 07:19:54;;;;;;;5.00;1.75;;;;;;;9.32;56.16;99359.75;5051640;28;20068;-76
2022/01/09 07:22:21;;;;;;;5.88;1.85;;;;;;;9.31;56.44;99367.00;5032444;28;20077;-75
2022/01/09 07:24:47;;;;;;;5.35;2.00;;;;;;;9.31;56.25;99364.28;5046245;28;20057;-76
2022/01/09 07:27:14;;;;;;;5.80;1.67;;;;;;;9.32;56.39;99371.44;5052354;28;20080;-76
2022/01/09 07:29:40;;;;;;;5.38;1.90;;;;;;;9.32;56.20;99370.56;5029917;28;20091;-76
2022/01/09 07:32:08;;;;;;;7.65;2.10;;;;;;;9.33;56.04;99377.72;5049611;28;20088;-77
2022/01/09 07:34:34;;;;;;;5.15;1.85;;;;;;;9.34;56.13;99374.88;5040940;28;20080;-77
2022/01/09 07:37:01;;;;;;;7.55;2.40;;;;;;;9.33;56.04;99384.00;5046683;28;20110;-76
2022/01/09 07:39:28;;;;;;;10.38;2.60;;;;;;;9.34;56.20;99388.41;5045220;28;20107;-76
2022/01/09 07:41:57;;;;;;;6.63;2.10;;;;;;;9.33;55.99;99393.97;5054064;28;20076;-76
2022/01/09 07:44:24;;;;;;;6.15;2.10;;;;;;;9.33;56.31;99400.25;5071161;28;20060;-76
2022/01/09 07:46:55;;;;;;;6.50;2.20;;;;;;;9.34;56.17;99407.38;5059403;28;20070;-76
2022/01/09 07:49:23;;;;;;;7.88;1.75;;;;;;;9.35;56.07;99408.25;5045163;28;20037;-76
2022/01/09 07:51:50;;;;;;;6.22;1.60;;;;;;;9.34;56.14;99404.66;5052864;28;20040;-76
2022/01/09 07:54:18;;;;;;;4.82;2.10;;;;;;;9.34;55.88;99406.50;5067473;28;20056;-77
2022/01/09 07:56:45;;;;;;;7.40;2.08;;;;;;;9.35;56.06;99421.78;5055261;28;20045;-76
2022/01/09 07:59:11;;;;;;;4.22;1.58;;;;;;;9.34;55.77;99420.06;5052140;28;20041;-76
2022/01/09 08:01:38;;;;;;;6.20;1.90;;;;;;;9.35;56.01;99433.47;5055624;28;20412;-76
2022/01/09 08:04:05;;;;;;;6.75;1.85;;;;;;;9.37;55.77;99436.06;5044317;28;20291;-77
2022/01/09 08:06:34;;;;;;;6.75;1.88;;;;;;;9.36;55.68;99448.75;5042926;28;20049;-76
2022/01/09 08:09:01;;;;;;;3.75;1.65;;;;;;;9.37;55.63;99438.78;5051577;28;20076;-77
2022/01/09 08:11:27;;;;;;;8.23;1.80;;;;;;;9.38;56.07;99456.75;5050834;28;20056;-76
2022/01/09 08:13:54;;;;;;;6.35;2.30;;;;;;;9.38;55.98;99454.03;5064004;28;20558;-76
2022/01/09 08:16:27;;;;;;;8.18;1.80;;;;;;;9.39;55.68;99459.28;5049443;28;20128;-76
2022/01/09 08:18:54;;;;;;;6.15;1.50;;;;;;;9.36;55.76;99465.00;5037434;28;20056;-76
2022/01/09 08:21:21;;;;;;;6.07;1.85;;;;;;;9.36;56.16;99475.84;5041160;28;20099;-76
2022/01/09 08:23:48;;;;;;;7.30;1.90;;;;;;;9.37;55.71;99474.84;5034897;28;20468;-76
2022/01/09 08:26:18;;;;;;;5.30;1.67;;;;;;;9.39;55.67;99474.69;5055612;28;20512;-76
2022/01/09 08:28:47;;;;;;;4.18;1.45;;;;;;;9.38;55.65;99484.69;5060214;28;20547;-76
2022/01/09 08:31:15;;;;;;;6.40;1.60;;;;;;;9.37;55.79;99485.69;5048194;28;20061;-77
2022/01/09 08:33:42;;;;;;;5.82;2.00;;;;;;;9.38;55.66;99487.41;5038865;28;20124;-76
2022/01/09 08:36:09;;;;;;;3.58;1.25;;;;;;;9.38;55.88;99490.13;5055708;28;20112;-76
2022/01/09 08:38:36;;;;;;;5.40;1.90;;;;;;;9.38;55.57;99495.53;5061063;28;20581;-76
2022/01/09 08:41:02;;;;;;;6.80;1.67;;;;;;;9.38;55.72;99495.53;5064866;28;20052;-76
2022/01/09 08:43:31;;;;;;;3.83;1.88;;;;;;;9.38;55.76;99500.94;5044536;28;20079;-75
2022/01/09 08:45:59;;;;;;;5.22;1.95;;;;;;;9.40;55.48;99498.94;5048479;28;20055;-76
2022/01/09 08:48:25;;;;;;;4.45;1.52;;;;;;;9.43;55.70;99509.53;5064615;28;20079;-76
2022/01/09 08:50:52;;;;;;;5.75;1.90;;;;;;;9.43;55.86;99512.25;5046773;28;20053;-75
2022/01/09 08:53:19;;;;;;;6.10;2.00;;;;;;;9.44;55.53;99516.69;5063572;28;20048;-76
2022/01/09 08:55:46;;;;;;;4.68;1.92;;;;;;;9.47;55.46;99507.44;5060178;28;20080;-76
2022/01/09 08:58:12;;;;;;;5.72;1.98;;;;;;;9.46;55.47;99517.41;5054094;28;20060;-76
2022/01/09 09:00:39;;;;;;;6.07;1.85;;;;;;;9.46;55.45;99525.56;5038032;28;20466;-76
2022/01/09 09:03:06;;;;;;;5.15;1.75;;;;;;;9.45;55.52;99534.66;5050260;28;20045;-76
2022/01/09 09:05:32;;;;;;;4.85;1.65;;;;;;;9.46;55.47;99538.22;5061174;28;20049;-76
2022/01/09 09:07:59;;;;;;;4.20;1.83;;;;;;;9.45;55.24;99537.38;5055385;28;20132;-76
2022/01/09 09:10:26;;;;;;;7.65;2.35;;;;;;;9.47;55.61;99539.94;5056489;28;20135;-76
2022/01/09 09:12:54;;;;;;;5.53;1.90;;;;;;;9.47;55.53;99545.38;5042211;28;20052;-76
2022/01/09 09:15:22;;;;;;;5.97;1.80;;;;;;;9.47;55.32;99540.78;5056883;28;20049;-76
2022/01/09 09:17:52;;;;;;;5.15;1.92;;;;;;;9.49;55.33;99554.22;5048794;28;20055;-76
2022/01/09 09:20:20;;;;;;;6.70;2.08;;;;;;;9.50;55.46;99555.94;5039699;28;20053;-76
2022/01/09 09:22:47;;;;;;;4.95;1.63;;;;;;;9.49;55.48;99551.50;5035610;28;20061;-76
2022/01/09 09:25:14;;;;;;;3.50;1.50;;;;;;;9.49;55.14;99565.91;5060127;28;20404;-76
2022/01/09 09:27:41;;;;;;;8.98;1.98;;;;;;;9.49;55.37;99563.19;5029515;28;20103;-76
2022/01/09 09:30:10;;;;;;;5.20;1.70;;;;;;;9.51;55.39;99572.06;5051188;28;20311;-76
2022/01/09 09:32:38;;;;;;;8.05;2.47;;;;;;;9.53;55.43;99566.53;5063409;28;20487;-75
2022/01/09 09:35:05;;;;;;;5.35;1.67;;;;;;;9.52;55.29;99579.22;5066897;28;20156;-76
2022/01/09 09:37:33;;;;;;;4.97;1.83;;;;;;;9.53;55.35;99580.94;5060946;28;20472;-76
2022/01/09 09:40:00;;;;;;;7.25;1.90;;;;;;;9.54;55.09;99579.09;5049340;28;20081;-77
2022/01/09 09:42:26;;;;;;;6.57;1.92;;;;;;;9.54;55.50;99584.50;5061320;28;20049;-76
2022/01/09 09:44:53;;;;;;;5.35;2.03;;;;;;;9.56;55.31;99590.63;5031959;28;20080;-76
2022/01/09 09:47:21;;;;;;;6.30;2.30;;;;;;;9.55;55.25;99591.66;5049265;28;20072;-76
2022/01/09 09:49:49;;;;;;;4.95;1.77;;;;;;;9.55;55.30;99606.03;5058723;28;20056;-76
2022/01/09 09:52:18;;;;;;;6.22;1.80;;;;;;;9.57;55.27;99595.06;5041962;28;20476;-76
2022/01/09 09:54:47;;;;;;;3.65;1.92;;;;;;;9.58;55.23;99604.94;5050172;28;20475;-76
2022/01/09 09:57:14;;;;;;;6.78;1.83;;;;;;;9.59;55.13;99592.25;5031374;28;20045;-76
2022/01/09 09:59:40;;;;;;;6.53;2.00;;;;;;;9.59;55.09;99611.22;5051867;28;20136;-77
2022/01/09 10:02:11;;;;;;;5.75;2.10;;;;;;;9.58;55.29;99606.78;5031997;28;20053;-76
2022/01/09 10:05:00;;;;;;;6.60;2.30;;;;;;;9.61;54.73;99620.09;5033342;28;20478;-77
2022/01/09 10:07:28;;;;;;;4.82;2.50;;;;;;;9.58;55.35;99621.19;5043274;28;20151;-76
2022/01/09 10:10:01;;;;;;;5.07;1.92;;;;;;;9.60;55.27;99623.78;5039316;28;20549;-76
2022/01/09 10:12:32;;;;;;;4.88;2.03;;;;;;;9.57;55.00;99633.00;5042384;28;20385;-76
2022/01/09 10:15:03;;;;;;;8.98;2.85;;;;;;;9.59;55.41;99646.44;5028997;28;20080;-76
2022/01/09 10:17:31;;;;;;;5.47;2.38;;;;;;;9.60;54.91;99640.91;5064597;28;20072;-77
2022/01/09 10:20:12;;;;;;;9.80;2.90;;;;;;;9.62;55.07;99644.34;5052395;28;20057;-77
2022/01/09 10:22:40;;;;;;;8.10;2.50;;;;;;;9.58;55.27;99642.00;5050333;28;20048;-76
2022/01/09 10:25:22;;;;;;;5.82;2.60;;;;;;;9.60;55.27;99653.59;5030385;28;20140;-77
2022/01/09 10:27:51;;;;;;;4.65;2.10;;;;;;;9.57;55.07;99667.38;5054700;28;20049;-76
2022/01/09 10:30:23;;;;;;;5.40;2.78;;;;;;;9.58;55.21;99661.84;5061670;28;20565;-77
2022/01/09 10:32:57;;;;;;;7.15;2.22;;;;;;;9.59;55.21;99668.13;5042903;28;20045;-77
2022/01/09 10:35:26;;;;;;;6.15;2.72;;;;;;;9.57;55.18;99672.78;5046911;28;20648;-77
2022/01/09 10:38:13;;;;;;;5.20;2.45;;;;;;;9.58;55.49;99679.94;5052107;28;20139;-77
2022/01/09 10:40:45;;;;;;;5.15;2.42;;;;;;;9.57;55.44;99673.66;5026314;28;20040;-77
2022/01/09 10:43:17;;;;;;;4.82;2.25;;;;;;;9.58;55.57;99678.09;5053737;28;20049;-76
2022/01/09 10:45:47;;;;;;;5.30;2.60;;;;;;;9.60;55.41;99668.00;5053705;28;20103;-76
2022/01/09 10:48:22;;;;;;;4.82;2.25;;;;;;;9.62;55.32;99685.00;5029301;28;20507;-76
2022/01/09 10:50:50;;;;;;;6.18;2.20;;;;;;;9.61;55.41;99683.28;5033332;28;20134;-76
2022/01/09 10:53:29;;;;;;;7.47;2.63;;;;;;;9.64;55.00;99685.72;5062557;28;20045;-77
2022/01/09 10:56:01;;;;;;;7.72;2.65;;;;;;;9.64;55.14;99692.97;5031138;28;20511;-77
2022/01/09 10:58:29;;;;;;;3.17;2.08;;;;;;;9.61;55.41;99694.13;5035618;28;20099;-77
2022/01/09 11:01:10;;;;;;;6.45;2.63;;;;;;;9.65;55.13;99690.16;5045692;28;20049;-77
2022/01/09 11:03:39;;;;;;;5.00;2.10;;;;;;;9.65;55.22;99694.72;5058084;28;20045;-77
2022/01/09 11:06:09;;;;;;;5.97;2.60;;;;;;;9.65;55.17;99692.84;5052620;28;20049;-77
2022/01/09 11:08:37;;;;;;;4.88;2.08;;;;;;;9.66;55.42;99700.00;5040018;28;20614;-77
2022/01/09 11:11:09;;;;;;;7.15;2.60;;;;;;;9.68;55.17;99698.03;5063869;28;20079;-77
2022/01/09 11:13:40;;;;;;;6.13;2.20;;;;;;;9.69;55.44;99709.75;5063354;28;20083;-77
2022/01/09 11:18:56;;;;;;;4.85;2.35;;;;;;;9.70;55.42;99709.63;5059021;28;20095;-77
2022/01/09 11:21:23;;;;;;;6.38;2.50;;;;;;;9.71;55.37;99713.19;5060804;28;20057;-77
2022/01/09 11:24:08;;;;;;;5.70;2.30;;;;;;;9.75;55.39;99720.06;5036816;28;20138;-76
2022/01/09 11:26:47;;;;;;;6.28;2.45;;;;;;;9.75;55.04;99707.38;5030292;28;20060;-77
2022/01/09 11:29:18;;;;;;;5.40;2.25;;;;;;;9.76;55.13;99716.38;5046389;28;20523;-77
2022/01/09 11:32:02;;;;;;;5.07;2.40;;;;;;;9.77;55.30;99716.25;5053456;28;20147;-77
2022/01/09 11:34:43;;;;;;;4.53;2.60;;;;;;;9.74;55.32;99724.63;5063989;28;20492;-77
2022/01/09 11:37:48;;;;;;;5.07;2.40;;;;;;;9.72;55.55;99726.59;5052848;28;20130;-77
2022/01/09 11:40:30;;;;;;;7.20;2.50;;;;;;;9.80;55.42;99729.53;5022014;28;20049;-76
2022/01/09 11:43:14;;;;;;;7.80;3.90;;;;;;;9.84;55.69;99733.75;5038712;28;20086;-76
2022/01/09 11:45:42;;;;;;;6.90;3.15;;;;;;;9.85;55.82;99737.31;5038930;28;20611;-77
2022/01/09 11:48:11;;;;;;;4.65;2.70;;;;;;;9.90;55.99;99735.94;5047931;28;20803;-77
2022/01/09 11:51:05;;;;;;;6.28;2.78;;;;;;;9.97;55.86;99736.31;5055261;28;20566;-76
2022/01/09 11:53:58;;;;;;;4.72;2.28;;;;;;;10.02;56.05;99739.50;5062530;28;20127;-77